createdAt,value
2022-08-23T00:01:39.379Z,100399.19
2022-08-23T00:04:34.864Z,100399.81
2022-08-23T00:07:24.024Z,100397.34
2022-08-23T00:10:14.260Z,100394.84
2022-08-23T00:13:04.279Z,100401.03
2022-08-23T00:15:53.229Z,100396.91
2022-08-23T00:18:41.769Z,100396.31
2022-08-23T00:21:39.031Z,100390.31
2022-08-23T00:24:27.914Z,100391.38
2022-08-23T00:27:18.512Z,100390.34
2022-08-23T00:30:11.746Z,100390.78
2022-08-23T00:33:00.273Z,100395.28
2022-08-23T00:35:48.834Z,100392.03
2022-08-23T00:38:37.557Z,100390.34
2022-08-23T00:41:26.546Z,100393.22
2022-08-23T00:44:35.708Z,100387.09
2022-08-23T00:47:43.132Z,100384.59
2022-08-23T00:50:36.558Z,100388.91
2022-08-23T00:53:27.039Z,100379.66
2022-08-23T00:56:17.669Z,100388.31
2022-08-23T00:59:06.472Z,100384.41
2022-08-23T01:01:55.077Z,100379.66
2022-08-23T01:04:48.792Z,100375.53
2022-08-23T01:07:47.107Z,100378.41
2022-08-23T01:10:39.612Z,100377.63
2022-08-23T01:13:34.552Z,100374.53
2022-08-23T01:16:33.549Z,100377.19
2022-08-23T01:19:27.774Z,100377.81
2022-08-23T01:22:25.951Z,100378.41
2022-08-23T01:25:21.398Z,100375.97
2022-08-23T01:28:10.018Z,100378.44
2022-08-23T01:31:17.789Z,100377.03
2022-08-23T01:34:09.503Z,100378.69
2022-08-23T01:36:58.426Z,100372.31
2022-08-23T01:39:47.008Z,100378.47
2022-08-23T01:42:37.505Z,100376.81
2022-08-23T01:45:26.069Z,100380.94
2022-08-23T01:48:14.936Z,100378.47
2022-08-23T01:51:03.471Z,100378.44
2022-08-23T01:53:52.463Z,100390.00
2022-08-23T01:56:42.408Z,100386.91
2022-08-23T01:59:32.817Z,100388.38
2022-08-23T02:02:21.330Z,100387.34
2022-08-23T02:05:11.280Z,100380.53
2022-08-23T02:08:21.069Z,100384.44
2022-08-23T02:11:10.273Z,100390.00
2022-08-23T02:14:04.186Z,100387.53
2022-08-23T02:17:04.003Z,100384.22
2022-08-23T02:19:53.558Z,100386.47
2022-08-23T02:22:42.099Z,100385.06
2022-08-23T02:25:31.005Z,100389.59
2022-08-23T02:28:19.532Z,100382.16
2022-08-23T02:31:08.311Z,100391.63
2022-08-23T02:34:01.418Z,100384.44
2022-08-23T02:36:49.991Z,100388.13
2022-08-23T02:39:38.821Z,100386.72
2022-08-23T02:42:27.780Z,100389.16
2022-08-23T02:45:17.199Z,100387.94
2022-08-23T02:48:06.391Z,100392.44
2022-08-23T02:51:00.600Z,100395.09
2022-08-23T02:53:49.165Z,100391.63
2022-08-23T02:56:37.885Z,100393.28
2022-08-23T02:59:26.473Z,100394.31
2022-08-23T03:02:15.020Z,100398.66
2022-08-23T03:05:03.705Z,100399.44
2022-08-23T03:07:53.542Z,100397.59
2022-08-23T03:10:44.308Z,100402.78
2022-08-23T03:13:32.773Z,100401.50
2022-08-23T03:16:22.097Z,100405.22
2022-08-23T03:19:10.714Z,100395.75
2022-08-23T03:21:59.277Z,100403.16
2022-08-23T03:24:49.215Z,100402.78
2022-08-23T03:27:38.381Z,100406.47
2022-08-23T03:30:33.952Z,100402.53
2022-08-23T03:33:24.158Z,100402.53
2022-08-23T03:36:14.133Z,100394.31
2022-08-23T03:39:02.858Z,100404.81
2022-08-23T03:41:52.668Z,100414.28
2022-08-23T03:44:41.274Z,100415.72
2022-08-23T03:47:29.950Z,100411.00
2022-08-23T03:50:18.496Z,100419.63
2022-08-23T03:53:07.478Z,100415.13
2022-08-23T03:55:57.895Z,100421.69
2022-08-23T03:58:47.825Z,100426.00
2022-08-23T04:01:36.722Z,100430.75
2022-08-23T04:04:25.392Z,100422.31
2022-08-23T04:07:13.955Z,100426.19
2022-08-23T04:10:02.543Z,100424.97
2022-08-23T04:12:52.602Z,100425.41
2022-08-23T04:15:43.349Z,100429.91
2022-08-23T04:18:32.651Z,100425.41
2022-08-23T04:21:22.976Z,100423.75
2022-08-23T04:24:11.469Z,100423.53
2022-08-23T04:27:00.039Z,100424.19
2022-08-23T04:29:48.491Z,100434.88
2022-08-23T04:32:38.357Z,100433.59
2022-08-23T04:35:27.236Z,100437.72
2022-08-23T04:38:18.247Z,100437.72
2022-08-23T04:41:49.397Z,100431.94
2022-08-23T04:44:38.866Z,100440.56
2022-08-23T04:47:27.921Z,100438.50
2022-08-23T04:50:17.954Z,100445.94
2022-08-23T04:53:06.397Z,100445.31
2022-08-23T04:55:56.411Z,100443.03
2022-08-23T04:58:45.109Z,100439.50
2022-08-23T05:01:34.860Z,100445.44
2022-08-23T05:04:23.410Z,100439.28
2022-08-23T05:07:13.370Z,100442.78
2022-08-23T05:10:01.881Z,100442.19
2022-08-23T05:12:50.523Z,100449.16
2022-08-23T05:15:38.988Z,100452.69
2022-08-23T05:18:28.045Z,100452.88
2022-08-23T05:21:18.212Z,100448.13
2022-08-23T05:24:08.220Z,100452.00
2022-08-23T05:27:04.596Z,100455.38
2022-08-23T05:29:54.303Z,100455.72
2022-08-23T05:32:42.831Z,100459.09
2022-08-23T05:35:31.306Z,100460.13
2022-08-23T05:38:20.985Z,100464.44
2022-08-23T05:41:11.513Z,100461.53
2022-08-23T05:44:00.001Z,100463.22
2022-08-23T05:46:51.218Z,100463.84
2022-08-23T05:49:40.532Z,100466.06
2022-08-23T05:52:29.085Z,100460.72
2022-08-23T05:55:17.768Z,100472.81
2022-08-23T05:58:07.610Z,100474.28
2022-08-23T06:00:56.153Z,100473.88
2022-08-23T06:03:45.054Z,100479.63
2022-08-23T06:06:36.381Z,100481.50
2022-08-23T06:09:26.461Z,100473.44
2022-08-23T06:12:14.998Z,100488.25
2022-08-23T06:15:05.553Z,100482.13
2022-08-23T06:17:54.017Z,100489.09
2022-08-23T06:20:42.870Z,100486.16
2022-08-23T06:23:32.306Z,100482.88
2022-08-23T06:26:22.060Z,100488.44
2022-08-23T06:29:12.758Z,100484.53
2022-08-23T06:32:03.008Z,100488.66
2022-08-23T06:34:51.578Z,100482.91
2022-08-23T06:38:00.123Z,100485.94
2022-08-23T06:40:48.785Z,100490.00
2022-08-23T06:43:44.725Z,100490.91
2022-08-23T06:46:34.151Z,100492.78
2022-08-23T06:49:24.620Z,100493.97
2022-08-23T06:52:13.937Z,100498.91
2022-08-23T06:55:03.747Z,100499.94
2022-08-23T06:57:52.377Z,100502.66
2022-08-23T07:00:40.831Z,100503.84
2022-08-23T07:03:29.403Z,100511.25
2022-08-23T07:06:27.296Z,100510.22
2022-08-23T07:09:16.091Z,100509.19
2022-08-23T07:12:06.039Z,100514.78
2022-08-23T07:14:56.468Z,100511.69
2022-08-23T07:17:45.037Z,100520.34
2022-08-23T07:20:33.779Z,100518.28
2022-08-23T07:23:23.774Z,100521.63
2022-08-23T07:26:14.043Z,100524.91
2022-08-23T07:29:06.218Z,100526.13
2022-08-23T07:31:56.390Z,100527.78
2022-08-23T07:34:45.000Z,100522.03
2022-08-23T07:37:33.585Z,100528.03
2022-08-23T07:40:23.533Z,100530.91
2022-08-23T07:43:16.557Z,100533.16
2022-08-23T07:46:05.433Z,100533.78
2022-08-23T07:48:54.933Z,100533.41
2022-08-23T07:51:47.491Z,100525.38
2022-08-23T07:54:35.972Z,100530.50
2022-08-23T07:57:25.846Z,100527.63
2022-08-23T08:00:15.318Z,100536.88
2022-08-23T08:03:03.921Z,100531.34
2022-08-23T08:05:52.455Z,100536.91
2022-08-23T08:08:42.077Z,100540.59
2022-08-23T08:11:35.089Z,100543.88
2022-08-23T08:14:25.366Z,100540.88
2022-08-23T08:17:14.122Z,100542.50
2022-08-23T08:20:03.194Z,100545.63
2022-08-23T08:22:58.322Z,100546.41
2022-08-23T08:25:48.735Z,100546.41
2022-08-23T08:28:38.126Z,100544.34
2022-08-23T08:31:28.591Z,100539.84
2022-08-23T08:34:18.111Z,100544.38
2022-08-23T08:37:07.565Z,100548.06
2022-08-23T08:39:57.900Z,100548.91
2022-08-23T08:43:00.570Z,100548.06
2022-08-23T08:45:58.773Z,100544.19
2022-08-23T08:48:51.632Z,100543.97
2022-08-23T08:51:45.558Z,100539.25
2022-08-23T08:54:34.148Z,100538.00
2022-08-23T08:57:27.350Z,100539.03
2022-08-23T09:00:19.914Z,100540.66
2022-08-23T09:03:14.151Z,100538.63
2022-08-23T09:06:09.515Z,100539.25
2022-08-23T09:09:13.854Z,100537.38
2022-08-23T09:12:07.119Z,100537.81
2022-08-23T09:15:17.587Z,100543.78
2022-08-23T09:18:10.644Z,100541.09
2022-08-23T09:21:01.844Z,100541.09
2022-08-23T09:24:00.628Z,100538.03
2022-08-23T09:26:49.825Z,100548.50
2022-08-23T09:29:41.808Z,100538.66
2022-08-23T09:32:33.944Z,100548.94
2022-08-23T09:35:24.890Z,100544.38
2022-08-23T09:38:21.039Z,100540.91
2022-08-23T09:41:20.421Z,100543.16
2022-08-23T09:44:13.622Z,100547.47
2022-08-23T09:47:07.891Z,100540.72
2022-08-23T09:49:56.430Z,100535.34
2022-08-23T09:52:45.258Z,100547.09
2022-08-23T09:55:36.215Z,100538.22
2022-08-23T09:58:31.786Z,100551.19
2022-08-23T10:01:22.988Z,100548.50
2022-08-23T10:04:14.532Z,100543.56
2022-08-23T10:07:03.084Z,100546.88
2022-08-23T10:09:52.029Z,100548.75
2022-08-23T10:12:40.543Z,100552.22
2022-08-23T10:15:42.757Z,100545.22
2022-08-23T10:18:48.836Z,100545.03
2022-08-23T10:21:41.756Z,100544.19
2022-08-23T10:24:38.751Z,100551.81
2022-08-23T10:27:50.222Z,100545.63
2022-08-23T10:30:46.581Z,100544.81
2022-08-23T10:33:41.017Z,100551.03
2022-08-23T10:36:33.611Z,100554.13
2022-08-23T10:39:27.060Z,100561.31
2022-08-23T10:42:21.417Z,100555.53
2022-08-23T10:45:18.065Z,100566.66
2022-08-23T10:48:21.399Z,100551.59
2022-08-23T10:51:13.622Z,100555.13
2022-08-23T10:54:06.294Z,100555.50
2022-08-23T10:56:54.903Z,100553.88
2022-08-23T10:59:43.886Z,100560.47
2022-08-23T11:02:36.968Z,100562.97
2022-08-23T11:05:29.055Z,100560.91
2022-08-23T11:08:33.467Z,100560.09
2022-08-23T11:11:42.322Z,100561.13
2022-08-23T11:14:36.361Z,100557.19
2022-08-23T11:17:27.771Z,100558.03
2022-08-23T11:20:55.209Z,100559.06
2022-08-23T11:23:55.448Z,100567.28
2022-08-23T11:27:08.195Z,100566.06
2022-08-23T11:29:56.720Z,100561.75
2022-08-23T11:32:46.513Z,100559.66
2022-08-23T11:35:43.210Z,100568.72
2022-08-23T11:39:04.658Z,100569.53
2022-08-23T11:42:09.073Z,100555.78
2022-08-23T11:44:57.738Z,100566.22
2022-08-23T11:47:46.369Z,100566.44
2022-08-23T11:50:44.718Z,100563.16
2022-08-23T11:54:02.524Z,100556.81
2022-08-23T11:57:06.561Z,100564.59
2022-08-23T12:00:10.597Z,100565.84
2022-08-23T12:03:02.781Z,100567.88
2022-08-23T12:06:12.686Z,100565.00
2022-08-23T12:09:02.941Z,100572.00
2022-08-23T12:12:32.571Z,100565.41
2022-08-23T12:16:04.464Z,100573.44
2022-08-23T12:18:58.080Z,100572.00
2022-08-23T12:21:49.878Z,100569.94
2022-08-23T12:24:44.756Z,100575.91
2022-08-23T12:27:36.717Z,100565.63
2022-08-23T12:30:31.375Z,100574.47
2022-08-23T12:33:27.172Z,100567.88
2022-08-23T12:36:20.551Z,100566.66
2022-08-23T12:39:15.861Z,100565.19
2022-08-23T12:42:07.392Z,100570.97
2022-08-23T12:45:07.725Z,100566.22
2022-08-23T12:47:59.882Z,100565.00
2022-08-23T12:50:55.348Z,100566.66
2022-08-23T12:53:45.973Z,100561.28
2022-08-23T12:56:37.388Z,100558.41
2022-08-23T12:59:38.133Z,100567.88
2022-08-23T13:02:29.495Z,100560.47
2022-08-23T13:05:23.827Z,100562.31
2022-08-23T13:08:15.832Z,100565.00
2022-08-23T13:11:08.133Z,100568.91
2022-08-23T13:13:57.104Z,100565.63
2022-08-23T13:16:46.173Z,100567.25
2022-08-23T13:19:34.707Z,100569.94
2022-08-23T13:22:26.956Z,100575.28
2022-08-23T13:25:31.185Z,100572.41
2022-08-23T13:28:24.972Z,100574.47
2022-08-23T13:31:13.786Z,100575.28
2022-08-23T13:34:02.429Z,100577.16
2022-08-23T13:36:54.759Z,100572.00
2022-08-23T13:39:49.339Z,100571.56
2022-08-23T13:42:44.332Z,100570.34
2022-08-23T13:45:34.725Z,100575.72
2022-08-23T13:48:25.789Z,100563.53
2022-08-23T13:51:30.973Z,100560.88
2022-08-23T13:54:19.498Z,100569.13
2022-08-23T13:57:12.413Z,100566.84
2022-08-23T14:00:02.360Z,100573.66
2022-08-23T14:02:51.044Z,100573.66
2022-08-23T14:05:39.595Z,100569.56
2022-08-23T14:08:28.276Z,100565.88
2022-08-23T14:11:17.245Z,100565.88
2022-08-23T14:14:07.246Z,100563.19
2022-08-23T14:16:59.630Z,100565.03
2022-08-23T14:23:02.480Z,100561.13
2022-08-23T14:25:59.378Z,100564.84
2022-08-23T14:28:48.366Z,100562.34
2022-08-23T14:31:44.349Z,100562.34
2022-08-23T14:34:32.951Z,100564.00
2022-08-23T14:38:02.519Z,100556.81
2022-08-23T14:40:30.167Z,100560.09
2022-08-23T14:43:18.809Z,100563.81
2022-08-23T14:46:09.817Z,100560.09
2022-08-23T14:48:59.917Z,100552.25
2022-08-23T14:51:50.676Z,100554.31
2022-08-23T14:54:39.280Z,100555.75
2022-08-23T14:57:27.845Z,100553.69
2022-08-23T15:00:18.238Z,100552.06
2022-08-23T15:03:10.172Z,100551.03
2022-08-23T15:06:03.313Z,100551.03
2022-08-23T15:08:51.963Z,100548.34
2022-08-23T15:14:49.255Z,100556.78
2022-08-23T15:17:39.306Z,100558.44
2022-08-23T15:20:29.662Z,100562.16
2022-08-23T15:23:19.613Z,100552.88
2022-08-23T15:26:08.265Z,100552.06
2022-08-23T15:28:56.913Z,100555.34
2022-08-23T15:31:45.542Z,100556.19
2022-08-23T15:34:35.357Z,100553.88
2022-08-23T15:37:24.267Z,100555.16
2022-08-23T15:40:14.773Z,100554.72
2022-08-23T15:43:04.075Z,100553.91
2022-08-23T15:45:53.714Z,100551.44
2022-08-23T15:48:45.976Z,100558.59
2022-08-23T15:51:34.621Z,100548.53
2022-08-23T15:54:23.150Z,100554.31
2022-08-23T15:57:16.345Z,100554.13
2022-08-23T16:00:07.002Z,100537.81
2022-08-23T16:03:19.958Z,100537.44
2022-08-23T16:06:04.440Z,100536.16
2022-08-23T16:08:54.411Z,100533.91
2022-08-23T16:11:43.087Z,100530.00
2022-08-23T16:14:33.185Z,100530.81
2022-08-23T16:17:22.902Z,100527.72
2022-08-23T16:20:14.223Z,100525.84
2022-08-23T16:23:02.987Z,100531.19
2022-08-23T16:25:52.892Z,100534.50
2022-08-23T16:28:41.512Z,100523.38
2022-08-23T16:31:38.617Z,100529.53
2022-08-23T16:34:28.299Z,100526.41
2022-08-23T16:37:16.945Z,100531.78
2022-08-23T16:40:07.042Z,100532.81
2022-08-23T16:42:56.482Z,100534.44
2022-08-23T16:45:45.075Z,100533.25
2022-08-23T16:48:35.684Z,100542.31
2022-08-23T16:51:24.512Z,100546.47
2022-08-23T16:54:13.704Z,100540.84
2022-08-23T16:57:02.431Z,100543.53
2022-08-23T16:59:51.368Z,100541.50
2022-08-23T17:02:40.868Z,100541.50
2022-08-23T17:05:30.904Z,100539.03
2022-08-23T17:08:19.531Z,100537.81
2022-08-23T17:11:12.770Z,100546.84
2022-08-23T17:14:05.129Z,100545.63
2022-08-23T17:16:55.346Z,100549.16
2022-08-23T17:19:44.503Z,100544.41
2022-08-23T17:22:34.683Z,100546.25
2022-08-23T17:25:25.303Z,100551.81
2022-08-23T17:28:17.413Z,100553.66
2022-08-23T17:31:06.609Z,100550.56
2022-08-23T17:33:55.469Z,100556.97
2022-08-23T17:36:47.986Z,100551.38
2022-08-23T17:39:38.117Z,100551.41
2022-08-23T17:42:26.624Z,100555.31
2022-08-23T17:45:15.454Z,100552.63
2022-08-23T17:48:04.343Z,100560.50
2022-08-23T17:50:52.865Z,100562.13
2022-08-23T17:53:41.570Z,100568.72
2022-08-23T17:56:32.017Z,100567.69
2022-08-23T17:59:20.665Z,100568.72
2022-08-23T18:02:09.171Z,100577.59
2022-08-23T18:04:57.678Z,100584.00
2022-08-23T18:07:46.420Z,100592.03
2022-08-23T18:10:35.053Z,100595.50
2022-08-23T18:13:25.449Z,100600.44
2022-08-23T18:16:14.414Z,100604.78
2022-08-23T18:19:03.731Z,100606.63
2022-08-23T18:21:52.566Z,100608.69
2022-08-23T18:24:41.169Z,100611.56
2022-08-23T18:27:55.513Z,100606.03
2022-08-23T18:30:49.563Z,100612.00
2022-08-23T18:33:46.710Z,100614.88
2022-08-23T18:36:36.362Z,100620.22
2022-08-23T18:39:31.132Z,100617.97
2022-08-23T18:42:20.591Z,100620.66
2022-08-23T18:45:10.810Z,100628.06
2022-08-23T18:48:00.729Z,100624.38
2022-08-23T18:50:49.696Z,100631.78
2022-08-23T18:53:38.748Z,100643.31
2022-08-23T18:56:28.682Z,100651.59
2022-08-23T18:59:17.241Z,100647.88
2022-08-23T19:02:05.943Z,100647.44
2022-08-23T19:04:55.962Z,100643.31
2022-08-23T19:07:44.447Z,100652.00
2022-08-23T19:10:33.414Z,100647.44
2022-08-23T19:13:21.925Z,100651.59
2022-08-23T19:16:13.392Z,100661.47
2022-08-23T19:19:01.900Z,100658.59
2022-08-23T19:21:52.002Z,100656.94
2022-08-23T19:24:40.586Z,100663.94
2022-08-23T19:27:29.189Z,100658.16
2022-08-23T19:30:18.345Z,100667.44
2022-08-23T19:33:06.862Z,100665.59
2022-08-23T19:35:55.456Z,100667.66
2022-08-23T19:38:47.962Z,100672.41
2022-08-23T19:41:36.642Z,100675.06
2022-08-23T19:44:25.493Z,100672.59
2022-08-23T19:47:19.568Z,100684.16
2022-08-23T19:50:10.511Z,100687.81
2022-08-23T19:52:59.060Z,100684.53
2022-08-23T19:55:48.997Z,100691.34
2022-08-23T19:58:37.957Z,100687.81
2022-08-23T20:01:26.480Z,100684.75
2022-08-23T20:04:15.057Z,100683.72
2022-08-23T20:07:04.911Z,100690.72
2022-08-23T20:09:53.518Z,100682.28
2022-08-23T20:12:43.974Z,100682.09
2022-08-23T20:15:32.494Z,100688.06
2022-08-23T20:18:25.157Z,100698.97
2022-08-23T20:21:13.672Z,100692.38
2022-08-23T20:24:06.047Z,100694.44
2022-08-23T20:26:54.564Z,100689.28
2022-08-23T20:29:44.718Z,100692.81
2022-08-23T20:32:33.957Z,100692.81
2022-08-23T20:35:22.852Z,100685.78
2022-08-23T20:38:32.851Z,100692.38
2022-08-23T20:41:19.862Z,100690.31
2022-08-23T20:44:09.628Z,100690.72
2022-08-23T20:47:02.814Z,100691.16
2022-08-23T20:49:51.855Z,100688.47
2022-08-23T20:52:40.401Z,100691.16
2022-08-23T20:55:29.240Z,100696.91
2022-08-23T20:58:17.816Z,100693.19
2022-08-23T21:01:10.192Z,100696.91
2022-08-23T21:04:02.249Z,100695.47
2022-08-23T21:06:53.619Z,100695.69
2022-08-23T21:09:43.089Z,100700.22
2022-08-23T21:12:31.621Z,100698.16
2022-08-23T21:15:20.143Z,100700.22
2022-08-23T21:18:08.765Z,100691.16
2022-08-23T21:20:59.415Z,100704.31
2022-08-23T21:23:47.912Z,100697.75
2022-08-23T21:26:36.745Z,100698.78
2022-08-23T21:29:25.290Z,100693.19
2022-08-23T21:32:14.366Z,100697.75
2022-08-23T21:35:03.204Z,100688.25
2022-08-23T21:37:53.063Z,100689.28
2022-08-23T21:40:41.891Z,100693.59
2022-08-23T21:43:31.387Z,100680.81
2022-08-23T21:46:19.899Z,100692.56
2022-08-23T21:49:08.917Z,100682.50
2022-08-23T21:52:00.739Z,100686.84
2022-08-23T21:54:50.575Z,100687.88
2022-08-23T21:57:39.071Z,100689.09
2022-08-23T22:00:27.815Z,100685.81
2022-08-23T22:03:16.445Z,100683.31
2022-08-23T22:06:05.522Z,100684.97
2022-08-23T22:08:54.128Z,100682.91
2022-08-23T22:11:45.541Z,100676.72
2022-08-23T22:14:34.098Z,100681.88
2022-08-23T22:17:22.796Z,100675.69
2022-08-23T22:20:13.470Z,100675.50
2022-08-23T22:23:02.508Z,100668.06
2022-08-23T22:25:51.147Z,100669.09
2022-08-23T22:28:44.374Z,100667.22
2022-08-23T22:31:33.803Z,100671.56
2022-08-23T22:34:22.570Z,100673.81
2022-08-23T22:37:11.530Z,100678.78
2022-08-23T22:40:00.002Z,100674.22
2022-08-23T22:42:49.012Z,100668.69
2022-08-23T22:45:42.110Z,100673.44
2022-08-23T22:48:35.374Z,100664.34
2022-08-23T22:51:29.759Z,100669.72
2022-08-23T22:54:18.396Z,100664.34
2022-08-23T22:57:08.807Z,100664.78
2022-08-23T22:59:57.307Z,100664.78
2022-08-23T23:02:48.539Z,100667.66
2022-08-23T23:05:38.903Z,100664.78
2022-08-23T23:08:30.719Z,100667.22
2022-08-23T23:11:20.991Z,100656.91
2022-08-23T23:14:11.247Z,100671.34
2022-08-23T23:16:59.819Z,100668.69
2022-08-23T23:20:07.230Z,100666.00
2022-08-23T23:22:57.175Z,100666.81
2022-08-23T23:25:46.105Z,100666.00
2022-08-23T23:28:34.648Z,100668.69
2022-08-23T23:31:23.220Z,100667.66
2022-08-23T23:34:11.815Z,100673.00
2022-08-23T23:37:02.296Z,100668.47
2022-08-23T23:39:50.906Z,100668.69
2022-08-23T23:42:39.681Z,100661.66
2022-08-23T23:45:28.538Z,100662.28
2022-08-23T23:48:17.185Z,100664.97
2022-08-23T23:51:09.386Z,100662.28
2022-08-23T23:54:00.921Z,100664.34
2022-08-23T23:56:50.045Z,100656.09
2022-08-23T23:59:38.605Z,100653.63
